createdAt,value
2018-11-10T00:00:18.722Z,95319.00
2018-11-10T00:00:56.979Z,95321.00
2018-11-10T00:02:25.736Z,95321.00
2018-11-10T00:03:10.796Z,95317.00
2018-11-10T00:03:50.888Z,95315.00
2018-11-10T00:04:31.805Z,95316.00
2018-11-10T00:06:50.024Z,95322.00
2018-11-10T00:07:27.629Z,95325.00
2018-11-10T00:08:05.500Z,95327.00
2018-11-10T00:08:43.245Z,95330.00
2018-11-10T00:09:20.627Z,95327.00
2018-11-10T00:09:58.224Z,95330.00
2018-11-10T00:10:35.878Z,95326.00
2018-11-10T00:11:13.423Z,95325.00
2018-11-10T00:11:50.907Z,95323.00
2018-11-10T00:12:28.566Z,95316.00
2018-11-10T00:13:06.270Z,95319.00
2018-11-10T00:13:43.966Z,95321.00
2018-11-10T00:14:21.588Z,95317.00
2018-11-10T00:14:58.998Z,95312.00
2018-11-10T00:15:36.546Z,95316.00
2018-11-10T00:16:14.115Z,95311.00
2018-11-10T00:16:51.694Z,95312.00
2018-11-10T00:17:29.446Z,95315.00
2018-11-10T00:18:07.294Z,95310.00
2018-11-10T00:18:44.843Z,95314.00
2018-11-10T00:19:22.451Z,95311.00
2018-11-10T00:20:00.212Z,95313.00
2018-11-10T00:20:37.766Z,95311.00
2018-11-10T00:21:15.579Z,95306.00
2018-11-10T00:21:52.945Z,95312.00
2018-11-10T00:22:30.535Z,95312.00
2018-11-10T00:23:08.287Z,95305.00
2018-11-10T00:23:45.988Z,95305.00
2018-11-10T00:24:23.638Z,95307.00
2018-11-10T00:25:01.446Z,95303.00
2018-11-10T00:25:39.001Z,95306.00
2018-11-10T00:26:16.660Z,95301.00
2018-11-10T00:26:54.324Z,95300.00
2018-11-10T00:27:32.154Z,95299.00
2018-11-10T00:28:09.714Z,95299.00
2018-11-10T00:28:47.095Z,95295.00
2018-11-10T00:29:24.746Z,95298.00
2018-11-10T00:30:02.327Z,95297.00
2018-11-10T00:30:39.958Z,95291.00
2018-11-10T00:31:17.562Z,95296.00
2018-11-10T00:31:55.593Z,95293.00
2018-11-10T00:32:33.205Z,95288.00
2018-11-10T00:33:10.916Z,95292.00
2018-11-10T00:33:48.619Z,95292.00
2018-11-10T00:34:26.170Z,95291.00
2018-11-10T00:35:03.740Z,95289.00
2018-11-10T00:35:41.383Z,95292.00
2018-11-10T00:36:18.919Z,95292.00
2018-11-10T00:36:56.442Z,95295.00
2018-11-10T00:37:34.008Z,95294.00
2018-11-10T00:38:11.605Z,95295.00
2018-11-10T00:38:49.355Z,95298.00
2018-11-10T00:39:27.148Z,95297.00
2018-11-10T00:40:04.857Z,95295.00
2018-11-10T00:40:42.454Z,95299.00
2018-11-10T00:41:19.947Z,95298.00
2018-11-10T00:41:57.528Z,95299.00
2018-11-10T00:42:35.098Z,95301.00
2018-11-10T00:43:12.550Z,95300.00
2018-11-10T00:43:50.349Z,95299.00
2018-11-10T00:44:27.841Z,95301.00
2018-11-10T00:45:05.609Z,95302.00
2018-11-10T00:45:43.295Z,95299.00
2018-11-10T00:46:20.909Z,95293.00
2018-11-10T00:46:58.562Z,95298.00
2018-11-10T00:47:36.247Z,95300.00
2018-11-10T00:48:13.752Z,95300.00
2018-11-10T00:48:51.481Z,95297.00
2018-11-10T00:49:29.065Z,95295.00
2018-11-10T00:50:06.625Z,95292.00
2018-11-10T00:50:44.140Z,95298.00
2018-11-10T00:51:21.721Z,95293.00
2018-11-10T00:51:59.367Z,95289.00
2018-11-10T00:52:37.215Z,95292.00
2018-11-10T00:53:14.871Z,95293.00
2018-11-10T00:53:52.542Z,95290.00
2018-11-10T00:54:30.151Z,95288.00
2018-11-10T00:55:07.552Z,95286.00
2018-11-10T00:55:45.257Z,95287.00
2018-11-10T00:56:22.779Z,95286.00
2018-11-10T00:57:00.551Z,95288.00
2018-11-10T00:57:38.176Z,95289.00
2018-11-10T00:58:15.878Z,95283.00
2018-11-10T00:58:53.527Z,95285.00
2018-11-10T00:59:30.955Z,95283.00
2018-11-10T01:00:08.486Z,95283.00
2018-11-10T01:00:46.022Z,95284.00
2018-11-10T01:01:23.661Z,95281.00
2018-11-10T01:02:01.255Z,95282.00
2018-11-10T01:02:38.931Z,95278.00
2018-11-10T01:03:16.509Z,95279.00
2018-11-10T01:03:54.151Z,95278.00
2018-11-10T01:04:31.810Z,95274.00
2018-11-10T01:05:09.241Z,95275.00
2018-11-10T01:05:46.855Z,95274.00
2018-11-10T01:06:26.014Z,95267.00
2018-11-10T01:07:03.590Z,95278.00
2018-11-10T01:07:41.228Z,95274.00
2018-11-10T01:08:18.730Z,95274.00
2018-11-10T01:08:56.237Z,95275.00
2018-11-10T01:09:33.781Z,95276.00
2018-11-10T01:10:11.842Z,95275.00
2018-11-10T01:10:49.411Z,95270.00
2018-11-10T01:11:27.089Z,95270.00
2018-11-10T01:12:04.761Z,95273.00
2018-11-10T01:12:42.502Z,95273.00
2018-11-10T01:13:19.935Z,95272.00
2018-11-10T01:13:57.502Z,95272.00
2018-11-10T01:14:35.080Z,95268.00
2018-11-10T01:15:12.623Z,95270.00
2018-11-10T01:15:50.251Z,95271.00
2018-11-10T01:16:27.794Z,95271.00
2018-11-10T01:17:05.317Z,95269.00
2018-11-10T01:17:42.896Z,95267.00
2018-11-10T01:18:20.588Z,95268.00
2018-11-10T01:18:58.247Z,95268.00
2018-11-10T01:19:35.767Z,95270.00
2018-11-10T01:20:13.437Z,95269.00
2018-11-10T01:20:50.998Z,95269.00
2018-11-10T01:21:28.753Z,95270.00
2018-11-10T01:22:06.370Z,95263.00
2018-11-10T01:22:44.174Z,95263.00
2018-11-10T01:23:21.997Z,95268.00
2018-11-10T01:23:59.627Z,95264.00
2018-11-10T01:24:37.128Z,95265.00
2018-11-10T01:25:14.632Z,95262.00
2018-11-10T01:25:52.300Z,95260.00
2018-11-10T01:26:29.837Z,95260.00
2018-11-10T01:27:07.413Z,95259.00
2018-11-10T01:27:45.236Z,95263.00
2018-11-10T01:28:23.000Z,95266.00
2018-11-10T01:29:00.624Z,95263.00
2018-11-10T01:29:38.402Z,95264.00
2018-11-10T01:30:15.916Z,95261.00
2018-11-10T01:30:53.855Z,95262.00
2018-11-10T01:31:31.341Z,95258.00
2018-11-10T01:32:09.188Z,95260.00
2018-11-10T01:32:46.839Z,95260.00
2018-11-10T01:33:24.967Z,95262.00
2018-11-10T01:34:02.801Z,95256.00
2018-11-10T01:34:40.480Z,95253.00
2018-11-10T01:35:18.142Z,95256.00
2018-11-10T01:35:55.618Z,95254.00
2018-11-10T01:36:33.289Z,95253.00
2018-11-10T01:37:10.955Z,95257.00
2018-11-10T01:37:48.554Z,95256.00
2018-11-10T01:38:26.070Z,95253.00
2018-11-10T01:39:03.709Z,95253.00
2018-11-10T01:39:41.413Z,95250.00
2018-11-10T01:40:19.076Z,95249.00
2018-11-10T01:40:56.863Z,95248.00
2018-11-10T01:41:34.383Z,95247.00
2018-11-10T01:42:11.934Z,95249.00
2018-11-10T01:42:49.522Z,95246.00
2018-11-10T01:43:27.189Z,95247.00
2018-11-10T01:44:04.711Z,95248.00
2018-11-10T01:44:42.202Z,95245.00
2018-11-10T01:45:19.848Z,95245.00
2018-11-10T01:45:57.386Z,95248.00
2018-11-10T01:46:35.077Z,95245.00
2018-11-10T01:47:12.697Z,95250.00
2018-11-10T01:47:50.427Z,95250.00
2018-11-10T01:48:28.012Z,95248.00
2018-11-10T01:49:05.526Z,95248.00
2018-11-10T01:49:43.153Z,95254.00
2018-11-10T01:50:20.848Z,95253.00
2018-11-10T01:50:58.432Z,95251.00
2018-11-10T01:51:36.090Z,95250.00
2018-11-10T01:52:13.670Z,95251.00
2018-11-10T01:52:51.029Z,95249.00
2018-11-10T01:53:28.767Z,95251.00
2018-11-10T01:54:06.378Z,95244.00
2018-11-10T01:54:43.918Z,95245.00
2018-11-10T01:55:21.508Z,95248.00
2018-11-10T01:55:59.237Z,95243.00
2018-11-10T01:56:36.738Z,95243.00
2018-11-10T01:57:14.557Z,95241.00
2018-11-10T01:57:52.117Z,95243.00
2018-11-10T01:58:29.730Z,95245.00
2018-11-10T01:59:07.314Z,95246.00
2018-11-10T01:59:44.925Z,95244.00
2018-11-10T02:00:22.626Z,95246.00
2018-11-10T02:01:00.387Z,95246.00
2018-11-10T02:01:37.876Z,95245.00
2018-11-10T02:02:15.457Z,95249.00
2018-11-10T02:02:53.028Z,95247.00
2018-11-10T02:03:30.773Z,95247.00
2018-11-10T02:04:08.291Z,95244.00
2018-11-10T02:04:46.136Z,95245.00
2018-11-10T02:05:23.678Z,95250.00
2018-11-10T02:06:01.286Z,95251.00
2018-11-10T02:06:38.944Z,95250.00
2018-11-10T02:07:16.513Z,95250.00
2018-11-10T02:07:54.550Z,95257.00
2018-11-10T02:08:32.134Z,95252.00
2018-11-10T02:09:10.012Z,95254.00
2018-11-10T02:09:47.589Z,95251.00
2018-11-10T02:10:25.243Z,95254.00
2018-11-10T02:11:03.021Z,95255.00
2018-11-10T02:11:44.357Z,95251.00
2018-11-10T02:12:21.764Z,95252.00
2018-11-10T02:12:59.586Z,95250.00
2018-11-10T02:13:37.250Z,95251.00
2018-11-10T02:14:14.888Z,95247.00
2018-11-10T02:14:52.459Z,95248.00
2018-11-10T02:15:30.220Z,95244.00
2018-11-10T02:16:07.856Z,95247.00
2018-11-10T02:16:49.122Z,95246.00
2018-11-10T02:17:26.694Z,95245.00
2018-11-10T02:18:04.349Z,95245.00
2018-11-10T02:18:42.232Z,95250.00
2018-11-10T02:19:20.007Z,95254.00
2018-11-10T02:19:57.669Z,95249.00
2018-11-10T02:20:35.415Z,95251.00
2018-11-10T02:21:13.197Z,95249.00
2018-11-10T02:21:50.954Z,95254.00
2018-11-10T02:22:28.648Z,95255.00
2018-11-10T02:23:06.264Z,95255.00
2018-11-10T02:23:43.937Z,95255.00
2018-11-10T02:24:21.608Z,95250.00
2018-11-10T02:24:59.189Z,95253.00
2018-11-10T02:25:36.880Z,95250.00
2018-11-10T02:26:14.546Z,95247.00
2018-11-10T02:26:52.129Z,95249.00
2018-11-10T02:27:29.828Z,95246.00
2018-11-10T02:28:07.488Z,95243.00
2018-11-10T02:28:45.584Z,95244.00
2018-11-10T02:29:23.391Z,95241.00
2018-11-10T02:30:01.204Z,95240.00
2018-11-10T02:30:39.008Z,95241.00
2018-11-10T02:31:16.528Z,95238.00
2018-11-10T02:31:54.306Z,95240.00
2018-11-10T02:32:31.848Z,95238.00
2018-11-10T02:33:09.488Z,95237.00
2018-11-10T02:33:47.290Z,95236.00
2018-11-10T02:34:24.848Z,95233.00
2018-11-10T02:35:02.844Z,95236.00
2018-11-10T02:35:40.456Z,95235.00
2018-11-10T02:36:18.437Z,95234.00
2018-11-10T02:36:56.121Z,95233.00
2018-11-10T02:37:34.037Z,95234.00
2018-11-10T02:38:11.530Z,95229.00
2018-11-10T02:38:49.565Z,95227.00
2018-11-10T02:39:27.425Z,95227.00
2018-11-10T02:40:05.136Z,95227.00
2018-11-10T02:40:42.966Z,95226.00
2018-11-10T02:41:20.868Z,95224.00
2018-11-10T02:41:58.668Z,95223.00
2018-11-10T02:42:36.287Z,95225.00
2018-11-10T02:43:14.208Z,95222.00
2018-11-10T02:43:51.741Z,95219.00
2018-11-10T02:44:29.410Z,95217.00
2018-11-10T02:45:07.116Z,95222.00
2018-11-10T02:45:44.983Z,95220.00
2018-11-10T02:46:22.916Z,95218.00
2018-11-10T02:47:00.314Z,95226.00
2018-11-10T02:47:38.280Z,95221.00
2018-11-10T02:48:16.039Z,95221.00
2018-11-10T02:48:53.945Z,95219.00
2018-11-10T02:49:31.616Z,95216.00
2018-11-10T02:50:09.336Z,95218.00
2018-11-10T02:50:46.989Z,95215.00
2018-11-10T02:51:24.876Z,95216.00
2018-11-10T02:52:02.686Z,95213.00
2018-11-10T02:52:40.440Z,95214.00
2018-11-10T02:53:18.214Z,95209.00
2018-11-10T02:53:55.870Z,95217.00
2018-11-10T02:54:33.505Z,95215.00
2018-11-10T02:55:11.322Z,95215.00
2018-11-10T02:55:48.895Z,95217.00
2018-11-10T02:56:26.461Z,95213.00
2018-11-10T02:57:03.907Z,95214.00
2018-11-10T02:57:41.494Z,95216.00
2018-11-10T02:58:19.188Z,95220.00
2018-11-10T02:58:57.298Z,95218.00
2018-11-10T02:59:35.082Z,95219.00
2018-11-10T03:00:12.734Z,95216.00
2018-11-10T03:00:50.524Z,95218.00
2018-11-10T03:01:28.337Z,95217.00
2018-11-10T03:02:06.132Z,95221.00
2018-11-10T03:02:43.934Z,95219.00
2018-11-10T03:03:21.563Z,95221.00
2018-11-10T03:03:59.186Z,95220.00
2018-11-10T03:04:36.905Z,95221.00
2018-11-10T03:05:14.945Z,95228.00
2018-11-10T03:05:52.712Z,95226.00
2018-11-10T03:06:30.694Z,95221.00
2018-11-10T03:07:08.675Z,95220.00
2018-11-10T03:07:46.394Z,95221.00
2018-11-10T03:08:24.227Z,95214.00
2018-11-10T03:09:01.894Z,95217.00
2018-11-10T03:09:39.845Z,95218.00
2018-11-10T03:10:17.562Z,95220.00
2018-11-10T03:10:55.536Z,95222.00
2018-11-10T03:11:33.024Z,95218.00
2018-11-10T03:12:10.874Z,95216.00
2018-11-10T03:12:48.606Z,95217.00
2018-11-10T03:13:26.488Z,95213.00
2018-11-10T03:14:04.324Z,95210.00
2018-11-10T03:14:42.146Z,95213.00
2018-11-10T03:15:20.094Z,95212.00
2018-11-10T03:15:57.600Z,95211.00
2018-11-10T03:16:35.228Z,95211.00
2018-11-10T03:17:12.885Z,95208.00
2018-11-10T03:17:50.752Z,95206.00
2018-11-10T03:18:28.506Z,95206.00
2018-11-10T03:19:06.237Z,95203.00
2018-11-10T03:19:43.723Z,95204.00
2018-11-10T03:20:21.719Z,95204.00
2018-11-10T03:20:59.384Z,95206.00
2018-11-10T03:21:36.958Z,95205.00
2018-11-10T03:22:15.052Z,95203.00
2018-11-10T03:22:52.505Z,95206.00
2018-11-10T03:23:30.238Z,95203.00
2018-11-10T03:24:08.425Z,95203.00
2018-11-10T03:24:46.137Z,95205.00
2018-11-10T03:25:23.630Z,95200.00
2018-11-10T03:26:01.164Z,95202.00
2018-11-10T03:26:38.753Z,95209.00
2018-11-10T03:27:16.387Z,95207.00
2018-11-10T03:27:53.939Z,95203.00
2018-11-10T03:28:31.556Z,95200.00
2018-11-10T03:29:09.419Z,95202.00
2018-11-10T03:29:47.191Z,95199.00
2018-11-10T03:30:24.813Z,95197.00
2018-11-10T03:31:02.553Z,95199.00
2018-11-10T03:31:40.020Z,95200.00
2018-11-10T03:32:17.775Z,95203.00
2018-11-10T03:32:55.572Z,95202.00
2018-11-10T03:33:33.190Z,95202.00
2018-11-10T03:34:10.906Z,95199.00
2018-11-10T03:34:48.714Z,95202.00
2018-11-10T03:35:26.264Z,95203.00
2018-11-10T03:36:03.990Z,95203.00
2018-11-10T03:36:41.800Z,95201.00
2018-11-10T03:37:19.357Z,95200.00
2018-11-10T03:37:57.294Z,95204.00
2018-11-10T03:38:34.844Z,95207.00
2018-11-10T03:39:12.436Z,95199.00
2018-11-10T03:39:50.028Z,95204.00
2018-11-10T03:40:27.813Z,95199.00
2018-11-10T03:41:05.502Z,95201.00
2018-11-10T03:41:43.245Z,95201.00
2018-11-10T03:42:21.204Z,95202.00
2018-11-10T03:42:58.901Z,95204.00
2018-11-10T03:43:36.623Z,95209.00
2018-11-10T03:44:14.631Z,95204.00
2018-11-10T03:44:52.656Z,95202.00
2018-11-10T03:45:30.424Z,95200.00
2018-11-10T03:46:08.102Z,95196.00
2018-11-10T03:46:45.762Z,95201.00
2018-11-10T03:47:23.842Z,95201.00
2018-11-10T03:48:01.782Z,95202.00
2018-11-10T03:48:39.751Z,95202.00
2018-11-10T03:49:17.593Z,95198.00
2018-11-10T03:49:55.286Z,95198.00
2018-11-10T03:50:32.812Z,95199.00
2018-11-10T03:51:10.625Z,95197.00
2018-11-10T03:51:48.371Z,95201.00
2018-11-10T03:52:26.267Z,95199.00
2018-11-10T03:53:03.914Z,95202.00
2018-11-10T03:53:41.740Z,95196.00
2018-11-10T03:54:19.557Z,95198.00
2018-11-10T03:54:57.269Z,95193.00
2018-11-10T03:55:34.772Z,95195.00
2018-11-10T03:56:12.466Z,95192.00
2018-11-10T03:56:49.830Z,95194.00
2018-11-10T03:57:27.412Z,95194.00
2018-11-10T03:58:05.021Z,95193.00
2018-11-10T03:58:42.659Z,95197.00
2018-11-10T03:59:20.651Z,95193.00
2018-11-10T03:59:58.258Z,95196.00
2018-11-10T04:00:35.861Z,95190.00
2018-11-10T04:01:13.732Z,95192.00
2018-11-10T04:01:51.377Z,95190.00
2018-11-10T04:02:29.087Z,95193.00
2018-11-10T04:03:06.743Z,95194.00
2018-11-10T04:03:44.680Z,95192.00
2018-11-10T04:04:22.524Z,95194.00
2018-11-10T04:05:00.132Z,95191.00
2018-11-10T04:05:37.786Z,95195.00
2018-11-10T04:06:15.300Z,95188.00
2018-11-10T04:06:52.982Z,95187.00
2018-11-10T04:07:30.950Z,95187.00
2018-11-10T04:08:08.779Z,95189.00
2018-11-10T04:08:46.659Z,95183.00
2018-11-10T04:09:24.441Z,95186.00
2018-11-10T04:10:02.138Z,95187.00
2018-11-10T04:10:39.668Z,95191.00
2018-11-10T04:11:17.205Z,95189.00
2018-11-10T04:11:55.160Z,95187.00
2018-11-10T04:12:32.809Z,95192.00
2018-11-10T04:13:10.466Z,95188.00
2018-11-10T04:13:48.209Z,95192.00
2018-11-10T04:14:26.126Z,95190.00
2018-11-10T04:15:03.724Z,95187.00
2018-11-10T04:15:41.329Z,95186.00
2018-11-10T04:16:18.930Z,95187.00
2018-11-10T04:16:56.628Z,95191.00
2018-11-10T04:17:34.320Z,95192.00
2018-11-10T04:18:11.934Z,95190.00
2018-11-10T04:18:49.540Z,95192.00
2018-11-10T04:19:27.229Z,95189.00
2018-11-10T04:20:04.774Z,95189.00
2018-11-10T04:20:42.298Z,95185.00
2018-11-10T04:21:20.005Z,95188.00
2018-11-10T04:22:36.986Z,95182.00
2018-11-10T04:23:14.509Z,95183.00
2018-11-10T04:23:52.096Z,95180.00
2018-11-10T04:24:29.692Z,95179.00
2018-11-10T04:25:07.451Z,95181.00
2018-11-10T04:25:45.235Z,95178.00
2018-11-10T04:26:23.119Z,95177.00
2018-11-10T04:27:00.630Z,95177.00
2018-11-10T04:27:38.349Z,95174.00
2018-11-10T04:28:16.010Z,95177.00
2018-11-10T04:28:53.583Z,95171.00
2018-11-10T04:29:31.370Z,95179.00
2018-11-10T04:30:08.924Z,95170.00
2018-11-10T04:30:46.609Z,95176.00
2018-11-10T04:31:24.259Z,95172.00
2018-11-10T04:32:02.229Z,95175.00
2018-11-10T04:32:39.881Z,95174.00
2018-11-10T04:33:17.648Z,95175.00
2018-11-10T04:33:55.474Z,95170.00
2018-11-10T04:34:33.458Z,95171.00
2018-11-10T04:35:11.022Z,95173.00
2018-11-10T04:35:48.718Z,95167.00
2018-11-10T04:36:26.416Z,95170.00
2018-11-10T04:37:04.037Z,95171.00
2018-11-10T04:37:41.804Z,95169.00
2018-11-10T04:38:19.436Z,95171.00
2018-11-10T04:38:57.252Z,95170.00
2018-11-10T04:39:35.090Z,95166.00
2018-11-10T04:40:12.657Z,95172.00
2018-11-10T04:40:50.271Z,95174.00
2018-11-10T04:41:28.390Z,95172.00
2018-11-10T04:42:05.976Z,95178.00
2018-11-10T04:42:43.883Z,95176.00
2018-11-10T04:43:21.362Z,95175.00
2018-11-10T04:43:58.953Z,95176.00
2018-11-10T04:44:36.599Z,95178.00
2018-11-10T04:45:14.388Z,95179.00
2018-11-10T04:45:52.318Z,95179.00
2018-11-10T04:46:30.057Z,95180.00
2018-11-10T04:47:08.257Z,95179.00
2018-11-10T04:47:46.105Z,95185.00
2018-11-10T04:48:23.831Z,95182.00
2018-11-10T04:49:01.645Z,95189.00
2018-11-10T04:49:39.654Z,95189.00
2018-11-10T04:50:17.323Z,95186.00
2018-11-10T04:50:54.941Z,95187.00
2018-11-10T04:51:32.647Z,95186.00
2018-11-10T04:52:10.207Z,95188.00
2018-11-10T04:52:47.944Z,95183.00
2018-11-10T04:53:25.452Z,95184.00
2018-11-10T04:54:03.188Z,95184.00
2018-11-10T04:54:40.987Z,95182.00
2018-11-10T04:55:19.040Z,95187.00
2018-11-10T04:55:56.739Z,95185.00
2018-11-10T04:56:34.354Z,95182.00
2018-11-10T04:57:12.016Z,95178.00
2018-11-10T04:57:49.801Z,95184.00
2018-11-10T04:58:27.728Z,95181.00
2018-11-10T04:59:05.313Z,95180.00
2018-11-10T04:59:42.959Z,95179.00
2018-11-10T05:00:20.930Z,95178.00
2018-11-10T05:00:58.594Z,95178.00
2018-11-10T05:01:36.494Z,95179.00
2018-11-10T05:02:14.202Z,95179.00
2018-11-10T05:02:52.031Z,95174.00
2018-11-10T05:03:29.876Z,95174.00
2018-11-10T05:04:07.904Z,95176.00
2018-11-10T05:04:45.473Z,95174.00
2018-11-10T05:05:23.187Z,95175.00
2018-11-10T05:06:00.697Z,95177.00
2018-11-10T05:06:38.316Z,95174.00
2018-11-10T05:07:15.858Z,95174.00
2018-11-10T05:07:53.519Z,95177.00
2018-11-10T05:08:31.227Z,95178.00
2018-11-10T05:09:08.896Z,95171.00
2018-11-10T05:09:46.516Z,95177.00
2018-11-10T05:10:24.206Z,95176.00
2018-11-10T05:11:01.709Z,95174.00
2018-11-10T05:11:39.377Z,95176.00
2018-11-10T05:12:16.923Z,95173.00
2018-11-10T05:12:54.481Z,95171.00
2018-11-10T05:13:32.083Z,95172.00
2018-11-10T05:14:09.710Z,95170.00
2018-11-10T05:14:47.402Z,95170.00
2018-11-10T05:15:25.077Z,95167.00
2018-11-10T05:16:03.047Z,95163.00
2018-11-10T05:16:40.766Z,95164.00
2018-11-10T05:17:18.408Z,95169.00
2018-11-10T05:17:55.817Z,95166.00
2018-11-10T05:18:33.427Z,95165.00
2018-11-10T05:19:11.107Z,95168.00
2018-11-10T05:19:48.732Z,95166.00
2018-11-10T05:20:26.516Z,95166.00
2018-11-10T05:21:04.136Z,95168.00
2018-11-10T05:21:41.786Z,95170.00
2018-11-10T05:22:19.571Z,95169.00
2018-11-10T05:22:57.493Z,95165.00
2018-11-10T05:23:35.044Z,95168.00
2018-11-10T05:24:12.740Z,95165.00
2018-11-10T05:24:50.237Z,95169.00
2018-11-10T05:25:28.055Z,95165.00
2018-11-10T05:26:05.854Z,95165.00
2018-11-10T05:26:43.491Z,95163.00
2018-11-10T05:27:21.010Z,95167.00
2018-11-10T05:27:58.637Z,95171.00
2018-11-10T05:28:36.485Z,95163.00
2018-11-10T05:29:14.379Z,95166.00
2018-11-10T05:29:52.350Z,95162.00
2018-11-10T05:30:30.022Z,95167.00
2018-11-10T05:31:07.943Z,95169.00
2018-11-10T05:31:45.699Z,95164.00
2018-11-10T05:32:26.356Z,95165.00
2018-11-10T05:33:03.977Z,95164.00
2018-11-10T05:33:41.877Z,95162.00
2018-11-10T05:34:19.385Z,95164.00
2018-11-10T05:34:56.932Z,95168.00
2018-11-10T05:35:34.546Z,95165.00
2018-11-10T05:36:12.257Z,95169.00
2018-11-10T05:36:50.025Z,95162.00
2018-11-10T05:37:27.914Z,95169.00
2018-11-10T05:38:05.950Z,95169.00
2018-11-10T05:38:43.562Z,95168.00
2018-11-10T05:39:21.468Z,95170.00
2018-11-10T05:39:59.109Z,95163.00
2018-11-10T05:40:36.963Z,95167.00
2018-11-10T05:41:14.531Z,95162.00
2018-11-10T05:41:52.249Z,95173.00
2018-11-10T05:42:29.786Z,95161.00
2018-11-10T05:43:07.316Z,95165.00
2018-11-10T05:43:44.887Z,95165.00
2018-11-10T05:44:22.438Z,95169.00
2018-11-10T05:45:00.125Z,95168.00
2018-11-10T05:45:37.860Z,95169.00
2018-11-10T05:46:15.446Z,95164.00
2018-11-10T05:46:53.375Z,95163.00
2018-11-10T05:47:30.818Z,95164.00
2018-11-10T05:48:08.466Z,95160.00
2018-11-10T05:48:46.189Z,95167.00
2018-11-10T05:49:23.986Z,95168.00
2018-11-10T05:50:01.775Z,95165.00
2018-11-10T05:50:39.581Z,95167.00
2018-11-10T05:51:17.305Z,95168.00
2018-11-10T05:51:54.888Z,95167.00
2018-11-10T05:52:32.755Z,95171.00
2018-11-10T05:53:10.548Z,95164.00
2018-11-10T05:53:48.185Z,95167.00
2018-11-10T05:54:26.035Z,95162.00
2018-11-10T05:55:03.628Z,95170.00
2018-11-10T05:55:41.006Z,95171.00
2018-11-10T05:56:18.976Z,95167.00
2018-11-10T05:56:56.529Z,95162.00
2018-11-10T05:57:34.571Z,95165.00
2018-11-10T05:58:12.189Z,95167.00
2018-11-10T05:58:50.084Z,95162.00
2018-11-10T05:59:27.947Z,95160.00
2018-11-10T06:00:06.126Z,95159.00
2018-11-10T06:00:43.721Z,95167.00
2018-11-10T06:01:21.612Z,95161.00
2018-11-10T06:01:59.269Z,95160.00
2018-11-10T06:02:37.087Z,95165.00
2018-11-10T06:03:14.643Z,95162.00
2018-11-10T06:03:52.183Z,95166.00
2018-11-10T06:04:29.823Z,95161.00
2018-11-10T06:05:07.307Z,95167.00
2018-11-10T06:05:44.778Z,95169.00
2018-11-10T06:06:22.584Z,95166.00
2018-11-10T06:07:00.238Z,95168.00
2018-11-10T06:07:37.910Z,95167.00
2018-11-10T06:08:15.615Z,95162.00
2018-11-10T06:08:53.443Z,95166.00
2018-11-10T06:09:31.021Z,95158.00
2018-11-10T06:10:08.871Z,95164.00
2018-11-10T06:10:46.276Z,95168.00
2018-11-10T06:11:24.225Z,95165.00
2018-11-10T06:12:01.864Z,95171.00
2018-11-10T06:12:39.750Z,95163.00
2018-11-10T06:13:17.866Z,95166.00
2018-11-10T06:13:55.666Z,95165.00
2018-11-10T06:14:33.275Z,95165.00
2018-11-10T06:15:11.143Z,95161.00
2018-11-10T06:15:48.898Z,95159.00
2018-11-10T06:16:26.771Z,95163.00
2018-11-10T06:17:04.544Z,95159.00
2018-11-10T06:17:42.556Z,95158.00
2018-11-10T06:18:20.234Z,95163.00
2018-11-10T06:18:57.988Z,95161.00
2018-11-10T06:19:36.117Z,95164.00
2018-11-10T06:20:14.130Z,95167.00
2018-11-10T06:20:52.053Z,95172.00
2018-11-10T06:21:29.945Z,95168.00
2018-11-10T06:22:07.819Z,95168.00
2018-11-10T06:22:45.555Z,95168.00
2018-11-10T06:23:23.324Z,95165.00
2018-11-10T06:24:00.964Z,95162.00
2018-11-10T06:24:38.806Z,95164.00
2018-11-10T06:25:16.782Z,95163.00
2018-11-10T06:25:54.257Z,95165.00
2018-11-10T06:26:31.965Z,95163.00
2018-11-10T06:27:09.809Z,95163.00
2018-11-10T06:27:47.469Z,95162.00
2018-11-10T06:28:25.178Z,95160.00
2018-11-10T06:29:02.780Z,95158.00
2018-11-10T06:29:40.380Z,95160.00
2018-11-10T06:30:18.047Z,95164.00
2018-11-10T06:30:55.683Z,95165.00
2018-11-10T06:31:33.448Z,95165.00
2018-11-10T06:32:11.196Z,95163.00
2018-11-10T06:32:48.809Z,95164.00
2018-11-10T06:33:26.392Z,95162.00
2018-11-10T06:34:03.946Z,95165.00
2018-11-10T06:34:41.997Z,95166.00
2018-11-10T06:35:19.878Z,95162.00
2018-11-10T06:35:57.472Z,95157.00
2018-11-10T06:36:35.335Z,95159.00
2018-11-10T06:37:12.939Z,95159.00
2018-11-10T06:37:50.516Z,95167.00
2018-11-10T06:38:28.336Z,95166.00
2018-11-10T06:39:05.935Z,95161.00
2018-11-10T06:39:43.535Z,95159.00
2018-11-10T06:40:21.257Z,95162.00
2018-11-10T06:40:59.015Z,95159.00
2018-11-10T06:41:36.788Z,95155.00
2018-11-10T06:42:14.667Z,95155.00
2018-11-10T06:42:52.568Z,95156.00
2018-11-10T06:43:30.215Z,95151.00
2018-11-10T06:44:08.128Z,95153.00
2018-11-10T06:44:45.906Z,95151.00
2018-11-10T06:45:24.018Z,95145.00
2018-11-10T06:46:01.947Z,95148.00
2018-11-10T06:46:39.563Z,95149.00
2018-11-10T06:47:17.372Z,95155.00
2018-11-10T06:47:55.311Z,95157.00
2018-11-10T06:48:33.138Z,95151.00
2018-11-10T06:49:10.928Z,95145.00
2018-11-10T06:49:48.523Z,95150.00
2018-11-10T06:50:26.576Z,95144.00
2018-11-10T06:51:04.311Z,95150.00
2018-11-10T06:51:41.827Z,95152.00
2018-11-10T06:52:19.727Z,95147.00
2018-11-10T06:52:57.662Z,95150.00
2018-11-10T06:53:35.343Z,95148.00
2018-11-10T06:54:12.872Z,95148.00
2018-11-10T06:54:50.556Z,95155.00
2018-11-10T06:55:28.415Z,95156.00
2018-11-10T06:56:06.146Z,95150.00
2018-11-10T06:56:43.780Z,95157.00
2018-11-10T06:57:21.850Z,95149.00
2018-11-10T06:57:59.513Z,95150.00
2018-11-10T06:58:37.225Z,95151.00
2018-11-10T06:59:14.947Z,95155.00
2018-11-10T06:59:52.537Z,95154.00
2018-11-10T07:00:30.442Z,95155.00
2018-11-10T07:01:08.002Z,95154.00
2018-11-10T07:01:45.372Z,95157.00
2018-11-10T07:02:23.083Z,95156.00
2018-11-10T07:03:00.706Z,95158.00
2018-11-10T07:03:38.531Z,95153.00
2018-11-10T07:04:16.006Z,95160.00
2018-11-10T07:04:53.735Z,95159.00
2018-11-10T07:05:31.402Z,95157.00
2018-11-10T07:06:09.137Z,95158.00
2018-11-10T07:06:46.883Z,95151.00
2018-11-10T07:07:24.771Z,95158.00
2018-11-10T07:08:02.738Z,95155.00
2018-11-10T07:08:40.285Z,95152.00
2018-11-10T07:09:18.283Z,95150.00
2018-11-10T07:09:55.977Z,95150.00
2018-11-10T07:10:33.623Z,95145.00
2018-11-10T07:11:11.296Z,95152.00
2018-11-10T07:11:48.977Z,95153.00
2018-11-10T07:12:26.856Z,95152.00
2018-11-10T07:13:04.414Z,95149.00
2018-11-10T07:13:42.015Z,95154.00
2018-11-10T07:14:19.978Z,95149.00
2018-11-10T07:14:57.573Z,95153.00
2018-11-10T07:15:35.140Z,95148.00
2018-11-10T07:16:12.865Z,95157.00
2018-11-10T07:16:50.547Z,95156.00
2018-11-10T07:17:28.479Z,95149.00
2018-11-10T07:18:06.317Z,95156.00
2018-11-10T07:18:44.270Z,95152.00
2018-11-10T07:19:22.007Z,95150.00
2018-11-10T07:19:59.857Z,95147.00
2018-11-10T07:20:37.545Z,95146.00
2018-11-10T07:21:15.436Z,95144.00
2018-11-10T07:21:52.966Z,95142.00
2018-11-10T07:22:30.706Z,95145.00
2018-11-10T07:23:08.486Z,95144.00
2018-11-10T07:23:46.255Z,95146.00
2018-11-10T07:24:24.249Z,95147.00
2018-11-10T07:25:02.115Z,95146.00
2018-11-10T07:25:40.122Z,95150.00
2018-11-10T07:26:17.763Z,95151.00